Agaogullari-5 — TC5282 — position and weather

sailwx.info

Track history (hours):
 
Tides and Currents Weather Stations Pressure Air Temp Water Temp Dewpoint Dewpoint Depression Visibility Wind Speed Wind Dir Waves Ship Positions

Agaogullari-5

Last reported at 2015-Jan-22 13:21 UTC. Time now 2015-Feb-01 22:50 UTC.
Position N 40°35' E 026°03'.
Warning: this ship's position is 10 days out of date.

Length 40 m.

Type: Fishing. MMSI: 271072163.

Date/timePositionNaut miles runAvg speedWind from/ knotsBaromVisibWave heightAir tempDewpointWater temp
2015-Jan-22 13:21N 40°35' E 026°03'2 2.0
2015-Jan-22 12:31N 40°36' E 026°01'7 7.5
2015-Jan-22 11:33N 40°41' E 025°54'  
2015-Jan-19 09:08N 40°42' E 026°03'0 0.0
2015-Jan-19 08:29N 40°42' E 026°03'7 0.7
2015-Jan-18 22:17N 40°42' E 025°54'810.6
2015-Jan-18 21:30N 40°44' E 025°43'4 0.5
2015-Jan-18 13:23N 40°40' E 025°45'6 5.7
2015-Jan-18 12:20N 40°45' E 025°40'4 0.8
2015-Jan-18 07:17N 40°42' E 025°45'1 0.2
2015-Jan-18 02:17N 40°43' E 025°45'0 0.2
2015-Jan-18 01:05N 40°43' E 025°44'5 1.0
2015-Jan-17 20:10N 40°41' E 025°50'6 9.0
2015-Jan-17 19:31N 40°41' E 025°58'4 3.4
2015-Jan-17 18:15N 40°42' E 026°03'7 9.9
2015-Jan-17 17:30N 40°42' E 025°53'8 3.6
2015-Jan-17 15:21N 40°42' E 025°43'6 0.3
2015-Jan-16 20:30N 40°39' E 025°50'8 8.7
2015-Jan-16 19:33N 40°41' E 025°60'2 2.3
2015-Jan-16 18:29N 40°42' E 026°03'11 0.3
2015-Jan-15 08:13N 40°36' E 025°52'0 0.4
2015-Jan-15 07:26N 40°35' E 025°52'2 0.5
2015-Jan-15 02:31N 40°34' E 025°54'0 0.1
2015-Jan-15 01:31N 40°34' E 025°54'0 0.2
2015-Jan-15 00:23N 40°34' E 025°54'1 0.7
2015-Jan-14 23:26N 40°34' E 025°53'6 6.5
2015-Jan-14 22:32N 40°39' E 025°58'5 4.6
2015-Jan-14 21:28N 40°42' E 026°03'4 4.3
2015-Jan-14 20:32N 40°39' E 025°59'5 2.4
2015-Jan-14 18:33N 40°38' E 025°53'0 0.0
2015-Jan-14 17:04N 40°38' E 025°53'0 0.5
2015-Jan-14 16:31N 40°38' E 025°53'2 1.7
2015-Jan-14 15:31N 40°39' E 025°54'0 0.3
2015-Jan-14 14:28N 40°40' E 025°54'6 6.4
2015-Jan-14 13:33N 40°39' E 025°46'3 0.9
2015-Jan-14 10:32N 40°41' E 025°48'0 0.3
2015-Jan-14 09:32N 40°41' E 025°48'4 3.8
2015-Jan-14 08:33N 40°40' E 025°53'6 6.3
2015-Jan-14 07:32N 40°44' E 025°46'6 5.7
2015-Jan-14 06:34N 40°44' E 025°54'3 2.6
2015-Jan-14 05:32N 40°41' E 025°54'0 0.0
2015-Jan-14 04:29N 40°41' E 025°54'0 0.0
2015-Jan-14 03:26N 40°41' E 025°54'0 0.0
2015-Jan-14 02:32N 40°41' E 025°54'0 0.0
2015-Jan-14 01:33N 40°41' E 025°54'0 0.0
2015-Jan-14 00:32N 40°41' E 025°54'0 0.0
2015-Jan-13 23:32N 40°41' E 025°54'0 0.0
2015-Jan-13 22:32N 40°41' E 025°54'0 0.0
2015-Jan-13 21:32N 40°41' E 025°54'0 0.2
2015-Jan-13 20:33N 40°41' E 025°54'5 1.1
2015-Jan-13 16:32N 40°42' E 026°00'2 1.7
2015-Jan-13 15:12N 40°42' E 026°03'1 0.4
2015-Jan-13 13:33N 40°42' E 026°02'7 2.1
2015-Jan-13 10:19N 40°40' E 025°54'0 0.2
2015-Jan-13 09:30N 40°40' E 025°54'1 1.2
2015-Jan-13 08:33N 40°41' E 025°55'1 0.7
2015-Jan-13 07:31N 40°41' E 025°54'  
Track history (hours):
 
Tides and Currents Weather Stations Pressure Air Temp Water Temp Dewpoint Dewpoint Depression Visibility Wind Speed Wind Dir Waves Ship Positions

Agaogullari-5

Last reported at 2015-Jan-22 13:21 UTC. Time now 2015-Feb-01 22:50 UTC.
Position N 40°35' E 026°03'.
Warning: this ship's position is 10 days out of date.

Length 40 m.

Type: Fishing. MMSI: 271072163.

Date/timePositionNaut miles runAvg speedWind from/ knotsBaromVisibWave heightAir tempDewpointWater temp
2015-Jan-22 13:21N 40°35' E 026°03'2 2.0
2015-Jan-22 12:31N 40°36' E 026°01'7 7.5
2015-Jan-22 11:33N 40°41' E 025°54'  
2015-Jan-19 09:08N 40°42' E 026°03'0 0.0
2015-Jan-19 08:29N 40°42' E 026°03'7 0.7
2015-Jan-18 22:17N 40°42' E 025°54'810.6
2015-Jan-18 21:30N 40°44' E 025°43'4 0.5
2015-Jan-18 13:23N 40°40' E 025°45'6 5.7
2015-Jan-18 12:20N 40°45' E 025°40'4 0.8
2015-Jan-18 07:17N 40°42' E 025°45'1 0.2
2015-Jan-18 02:17N 40°43' E 025°45'0 0.2
2015-Jan-18 01:05N 40°43' E 025°44'5 1.0
2015-Jan-17 20:10N 40°41' E 025°50'6 9.0
2015-Jan-17 19:31N 40°41' E 025°58'4 3.4
2015-Jan-17 18:15N 40°42' E 026°03'7 9.9
2015-Jan-17 17:30N 40°42' E 025°53'8 3.6
2015-Jan-17 15:21N 40°42' E 025°43'6 0.3
2015-Jan-16 20:30N 40°39' E 025°50'8 8.7
2015-Jan-16 19:33N 40°41' E 025°60'2 2.3
2015-Jan-16 18:29N 40°42' E 026°03'11 0.3
2015-Jan-15 08:13N 40°36' E 025°52'0 0.4
2015-Jan-15 07:26N 40°35' E 025°52'2 0.5
2015-Jan-15 02:31N 40°34' E 025°54'0 0.1
2015-Jan-15 01:31N 40°34' E 025°54'0 0.2
2015-Jan-15 00:23N 40°34' E 025°54'1 0.7
2015-Jan-14 23:26N 40°34' E 025°53'6 6.5
2015-Jan-14 22:32N 40°39' E 025°58'5 4.6
2015-Jan-14 21:28N 40°42' E 026°03'4 4.3
2015-Jan-14 20:32N 40°39' E 025°59'5 2.4
2015-Jan-14 18:33N 40°38' E 025°53'0 0.0
2015-Jan-14 17:04N 40°38' E 025°53'0 0.5
2015-Jan-14 16:31N 40°38' E 025°53'2 1.7
2015-Jan-14 15:31N 40°39' E 025°54'0 0.3
2015-Jan-14 14:28N 40°40' E 025°54'6 6.4
2015-Jan-14 13:33N 40°39' E 025°46'3 0.9
2015-Jan-14 10:32N 40°41' E 025°48'0 0.3
2015-Jan-14 09:32N 40°41' E 025°48'4 3.8
2015-Jan-14 08:33N 40°40' E 025°53'6 6.3
2015-Jan-14 07:32N 40°44' E 025°46'6 5.7
2015-Jan-14 06:34N 40°44' E 025°54'3 2.6
2015-Jan-14 05:32N 40°41' E 025°54'0 0.0
2015-Jan-14 04:29N 40°41' E 025°54'0 0.0
2015-Jan-14 03:26N 40°41' E 025°54'0 0.0
2015-Jan-14 02:32N 40°41' E 025°54'0 0.0
2015-Jan-14 01:33N 40°41' E 025°54'0 0.0
2015-Jan-14 00:32N 40°41' E 025°54'0 0.0
2015-Jan-13 23:32N 40°41' E 025°54'0 0.0
2015-Jan-13 22:32N 40°41' E 025°54'0 0.0
2015-Jan-13 21:32N 40°41' E 025°54'0 0.2
2015-Jan-13 20:33N 40°41' E 025°54'5 1.1
2015-Jan-13 16:32N 40°42' E 026°00'2 1.7
2015-Jan-13 15:12N 40°42' E 026°03'1 0.4
2015-Jan-13 13:33N 40°42' E 026°02'7 2.1
2015-Jan-13 10:19N 40°40' E 025°54'0 0.2
2015-Jan-13 09:30N 40°40' E 025°54'1 1.2
2015-Jan-13 08:33N 40°41' E 025°55'1 0.7
2015-Jan-13 07:31N 40°41' E 025°54'  

Dump ship's entire track history